Time;durP1;ratioP1;P1;durP2;ratioP2;P2;SDS_P1;SDS_P2;PMS_P1;PMS_P2;Temp;Humidity;BMP_temperature;BMP_pressure;BME280_temperature;BME280_humidity;BME280_pressure;Samples;Min_cycle;Max_cycle;Signal;HPM_P1;HPM_P2
2021/12/30 06:35:24;;;;;;;40.90;20.62;;;;;;;-3.52;82.87;100476.02;1785051;80;21057;-42
2021/12/30 06:37:52;;;;;;;32.98;19.10;;;;;;;-3.50;82.67;100484.25;1676447;83;21087;-42
2021/12/30 06:40:19;;;;;;;33.58;18.32;;;;;;;-3.48;82.66;100489.45;1676338;83;21021;-42
2021/12/30 06:42:48;;;;;;;34.63;18.15;;;;;;;-3.46;82.60;100490.44;1676823;84;21080;-35
2021/12/30 06:45:15;;;;;;;37.50;19.82;;;;;;;-3.46;82.33;100478.92;1661678;84;21061;-42
2021/12/30 06:47:44;;;;;;;35.98;19.17;;;;;;;-3.45;82.31;100490.92;1672571;83;21056;-35
2021/12/30 06:50:14;;;;;;;33.25;19.87;;;;;;;-3.46;82.08;100493.00;1675717;83;20989;-36
2021/12/30 06:52:46;;;;;;;38.02;19.12;;;;;;;-3.47;81.98;100500.59;1674713;84;21639;-36
2021/12/30 06:55:13;;;;;;;36.35;19.00;;;;;;;-3.50;81.88;100495.76;1670438;83;21046;-37
2021/12/30 06:57:41;;;;;;;34.48;20.15;;;;;;;-3.52;81.87;100496.48;1675852;83;21036;-36
2021/12/30 07:00:10;;;;;;;42.27;19.07;;;;;;;-3.53;82.00;100493.03;1676685;83;21030;-43
2021/12/30 07:02:37;;;;;;;34.30;19.75;;;;;;;-3.47;82.04;100495.48;1671489;83;21064;-36
2021/12/30 07:05:05;;;;;;;37.53;20.02;;;;;;;-3.47;81.87;100485.24;1676157;83;21476;-44
2021/12/30 07:07:32;;;;;;;34.63;18.23;;;;;;;-3.49;81.82;100489.84;1667931;83;21001;-43
2021/12/30 07:09:59;;;;;;;33.45;19.90;;;;;;;-3.44;81.80;100500.36;1670828;83;21037;-44
2021/12/30 07:12:26;;;;;;;35.55;20.00;;;;;;;-3.42;81.78;100499.16;1667407;83;21026;-44
2021/12/30 07:14:53;;;;;;;36.25;19.73;;;;;;;-3.42;81.79;100498.80;1673864;83;21213;-47
2021/12/30 07:17:21;;;;;;;35.20;18.40;;;;;;;-3.39;81.92;100498.95;1669223;83;21156;-38
2021/12/30 07:19:48;;;;;;;36.03;19.55;;;;;;;-3.36;81.85;100505.55;1674341;83;21399;-38
2021/12/30 07:22:16;;;;;;;35.35;20.57;;;;;;;-3.33;81.65;100515.95;1671460;83;21062;-46
2021/12/30 07:24:43;;;;;;;38.10;21.07;;;;;;;-3.35;81.66;100516.27;1674360;83;20989;-47
2021/12/30 07:27:09;;;;;;;30.77;17.62;;;;;;;-3.32;81.79;100518.98;1674275;83;21028;-47
2021/12/30 07:29:36;;;;;;;41.00;19.85;;;;;;;-3.27;81.66;100521.81;1669677;83;21145;-47
2021/12/30 07:32:03;;;;;;;35.00;20.08;;;;;;;-3.25;81.42;100513.45;1673016;83;21096;-45
2021/12/30 07:34:30;;;;;;;39.83;22.15;;;;;;;-3.21;81.30;100519.22;1674466;83;21568;-45
2021/12/30 07:36:57;;;;;;;45.10;24.20;;;;;;;-3.08;81.72;100527.60;1699338;81;21062;-45
2021/12/30 07:39:24;;;;;;;36.50;21.20;;;;;;;-2.94;81.45;100521.62;1718882;82;21037;-46
2021/12/30 07:41:50;;;;;;;39.40;20.27;;;;;;;-2.82;80.64;100525.27;1714241;81;21124;-36
2021/12/30 07:44:18;;;;;;;35.58;19.62;;;;;;;-2.79;80.32;100526.70;1700585;82;20998;-37
2021/12/30 07:46:45;;;;;;;31.65;18.07;;;;;;;-2.75;79.96;100524.81;1712521;82;21108;-37
2021/12/30 07:49:11;;;;;;;35.52;19.50;;;;;;;-2.68;79.90;100533.33;1721325;83;21039;-37
2021/12/30 07:51:38;;;;;;;32.00;18.82;;;;;;;-2.59;79.35;100538.09;1721543;81;21097;-37
2021/12/30 07:54:05;;;;;;;31.37;18.70;;;;;;;-2.56;78.85;100540.41;1720013;81;20962;-36
2021/12/30 07:56:34;;;;;;;32.70;18.05;;;;;;;-2.53;78.32;100535.87;1716282;82;21040;-45
2021/12/30 07:59:01;;;;;;;31.80;17.42;;;;;;;-2.51;78.13;100539.39;1719196;82;20997;-38
2021/12/30 08:01:28;;;;;;;30.27;17.23;;;;;;;-2.43;77.88;100549.30;1717188;82;21029;-44
2021/12/30 08:03:55;;;;;;;30.77;17.70;;;;;;;-2.36;77.46;100558.20;1719128;82;21644;-45
2021/12/30 08:06:26;;;;;;;34.88;19.48;;;;;;;-2.37;76.94;100548.75;1718149;82;21009;-45
2021/12/30 08:08:50;;;;;;;32.85;18.77;;;;;;;-2.34;77.23;100545.47;1721156;81;21000;-45
2021/12/30 08:11:19;;;;;;;36.23;18.67;;;;;;;-2.27;77.06;100542.43;1719515;81;21904;-45
2021/12/30 08:13:46;;;;;;;34.92;19.57;;;;;;;-2.12;77.02;100543.28;1717773;82;21516;-45
2021/12/30 08:16:13;;;;;;;32.50;17.67;;;;;;;-2.05;76.19;100544.49;1715964;82;21025;-45
2021/12/30 08:18:43;;;;;;;26.25;16.27;;;;;;;-2.06;76.12;100544.89;1720750;82;21090;-45
2021/12/30 08:21:10;;;;;;;30.37;17.55;;;;;;;-1.99;75.71;100548.27;1723588;81;21033;-45
2021/12/30 08:23:37;;;;;;;27.73;15.60;;;;;;;-1.98;75.29;100542.73;1720586;82;21020;-45
2021/12/30 08:26:04;;;;;;;25.72;14.95;;;;;;;-2.00;74.32;100539.22;1718937;82;21660;-45
2021/12/30 08:28:32;;;;;;;30.00;18.40;;;;;;;-2.01;74.57;100540.90;1716420;81;21637;-45
2021/12/30 08:30:59;;;;;;;34.20;17.25;;;;;;;-1.91;74.50;100531.63;1722362;81;21865;-38
2021/12/30 08:33:25;;;;;;;34.63;18.62;;;;;;;-1.81;74.25;100536.83;1716314;82;21379;-44
2021/12/30 08:35:53;;;;;;;30.45;19.35;;;;;;;-1.70;74.05;100535.70;1720188;82;21029;-37
2021/12/30 08:38:20;;;;;;;40.15;21.75;;;;;;;-1.64;74.00;100530.90;1707687;82;21698;-36
2021/12/30 08:40:47;;;;;;;35.92;19.67;;;;;;;-1.46;74.00;100528.80;1703590;82;21037;-44
2021/12/30 08:43:16;;;;;;;31.65;17.87;;;;;;;-1.26;73.80;100524.70;1701725;82;21009;-38
2021/12/30 08:45:45;;;;;;;27.40;16.20;;;;;;;-1.03;73.35;100519.45;1704181;83;21547;-37
2021/12/30 08:48:12;;;;;;;24.87;15.75;;;;;;;-0.85;72.42;100509.67;1710451;83;21016;-38
2021/12/30 08:50:40;;;;;;;31.17;16.05;;;;;;;-0.68;71.80;100509.61;1701284;82;21318;-45
2021/12/30 08:53:08;;;;;;;30.27;16.87;;;;;;;-0.63;70.79;100506.45;1701267;83;21009;-45
2021/12/30 08:55:35;;;;;;;27.00;16.45;;;;;;;-0.59;70.68;100512.60;1704106;82;21604;-37
2021/12/30 08:58:03;;;;;;;30.75;17.73;;;;;;;-0.59;70.22;100509.62;1703451;82;20939;-37
2021/12/30 09:00:33;;;;;;;27.17;16.07;;;;;;;-0.55;70.09;100507.69;1705421;83;21044;-45
2021/12/30 09:03:04;;;;;;;27.98;16.52;;;;;;;-0.45;69.62;100509.02;1701336;82;21651;-45
2021/12/30 09:05:33;;;;;;;22.67;13.22;;;;;;;-0.38;69.20;100523.04;1705662;82;21057;-45
2021/12/30 09:07:59;;;;;;;27.75;16.37;;;;;;;-0.32;68.38;100522.04;1704495;82;21312;-45
2021/12/30 09:10:26;;;;;;;26.62;15.72;;;;;;;-0.34;67.98;100527.12;1693978;83;21005;-44
2021/12/30 09:12:55;;;;;;;28.00;15.43;;;;;;;-0.33;67.69;100526.71;1694255;82;21994;-45
2021/12/30 09:15:24;;;;;;;28.47;16.73;;;;;;;-0.30;67.72;100526.43;1698805;82;21073;-45
2021/12/30 09:17:51;;;;;;;32.55;16.57;;;;;;;-0.31;67.79;100525.08;1703791;82;21652;-46
2021/12/30 09:20:23;;;;;;;29.65;16.05;;;;;;;-0.16;68.16;100528.79;1697146;82;21022;-38
2021/12/30 09:22:50;;;;;;;25.25;15.30;;;;;;;-0.02;67.81;100522.17;1683847;82;21028;-37
2021/12/30 09:25:21;;;;;;;25.27;15.03;;;;;;;0.14;67.61;100526.33;1697164;82;20992;-46
2021/12/30 09:27:49;;;;;;;23.75;15.28;;;;;;;0.29;67.21;100535.53;1679417;82;21077;-45
2021/12/30 09:30:19;;;;;;;23.00;14.20;;;;;;;0.35;66.58;100529.00;1698383;82;21040;-45
2021/12/30 09:32:50;;;;;;;23.87;13.40;;;;;;;0.38;65.85;100532.09;1659339;82;21505;-46
2021/12/30 09:35:18;;;;;;;22.00;13.75;;;;;;;0.38;65.60;100527.83;1698962;82;21909;-46
2021/12/30 09:37:45;;;;;;;16.73;11.55;;;;;;;0.44;65.07;100526.81;1687462;81;21019;-44
2021/12/30 09:40:14;;;;;;;20.35;11.68;;;;;;;0.29;63.83;100534.25;1726210;81;21013;-46
2021/12/30 09:42:47;;;;;;;22.37;13.53;;;;;;;0.04;63.76;100541.27;1688052;83;21030;-38
2021/12/30 09:45:21;;;;;;;25.37;15.08;;;;;;;-0.18;64.04;100535.53;1726664;81;20996;-38
2021/12/30 09:47:54;;;;;;;25.82;14.95;;;;;;;-0.21;65.23;100534.12;1725610;81;20954;-47
2021/12/30 09:50:28;;;;;;;29.37;15.53;;;;;;;-0.08;64.94;100526.16;1729044;81;21420;-46
2021/12/30 09:53:01;;;;;;;27.65;14.80;;;;;;;0.01;65.29;100530.45;1725834;81;21385;-47
2021/12/30 09:55:30;;;;;;;25.50;15.68;;;;;;;0.08;65.30;100522.19;1728847;81;20989;-39
2021/12/30 09:57:58;;;;;;;25.23;15.10;;;;;;;0.17;64.54;100529.43;1726525;81;21092;-38
2021/12/30 10:00:25;;;;;;;22.27;13.90;;;;;;;0.20;64.47;100525.31;1729219;81;20978;-39
2021/12/30 10:02:52;;;;;;;22.75;13.80;;;;;;;0.20;64.32;100526.60;1725573;81;21001;-39
2021/12/30 10:05:22;;;;;;;24.15;14.75;;;;;;;0.07;63.94;100514.00;1727376;81;20993;-38
2021/12/30 10:07:49;;;;;;;24.10;14.80;;;;;;;-0.10;64.04;100514.92;1723723;82;21112;-39
2021/12/30 10:10:33;;;;;;;31.97;18.82;;;;;;;-0.27;64.35;100509.88;1725500;81;21396;-38
2021/12/30 10:13:01;;;;;;;28.57;17.77;;;;;;;-0.28;65.24;100504.67;1728307;81;21017;-47
2021/12/30 10:15:32;;;;;;;32.80;18.80;;;;;;;-0.10;65.43;100503.35;1729188;82;20981;-47
2021/12/30 10:17:59;;;;;;;27.77;16.45;;;;;;;0.02;65.32;100497.48;1729499;81;21057;-48
2021/12/30 10:20:30;;;;;;;28.83;17.67;;;;;;;0.15;65.17;100491.19;1726022;81;21036;-38
2021/12/30 10:23:20;;;;;;;30.55;18.15;;;;;;;0.26;64.85;100489.56;1731055;81;21067;-39
2021/12/30 10:25:49;;;;;;;30.85;17.40;;;;;;;0.34;64.11;100495.03;1727433;81;21044;-47
2021/12/30 10:28:36;;;;;;;30.10;16.77;;;;;;;0.29;63.95;100491.41;1727857;81;20952;-47
2021/12/30 10:31:17;;;;;;;94.15;53.05;;;;;;;0.13;64.07;100491.53;1726171;81;21061;-48
2021/12/30 10:33:57;;;;;;;30.90;17.23;;;;;;;-0.04;64.37;100486.50;1727849;82;21065;-48
2021/12/30 10:44:09;;;;;;;24.43;15.88;;;;;;;-0.42;65.19;100481.27;1795432;79;23397;-40
2021/12/30 10:46:36;;;;;;;26.55;15.75;;;;;;;-0.50;65.86;100485.19;1750684;80;21042;-49
2021/12/30 10:49:11;;;;;;;29.42;16.55;;;;;;;-0.42;66.05;100479.98;1734478;80;21434;-48
2021/12/30 10:51:42;;;;;;;26.70;16.15;;;;;;;-0.41;65.68;100479.17;1733552;82;21063;-40
2021/12/30 10:54:14;;;;;;;25.68;15.63;;;;;;;-0.48;65.85;100483.56;1738443;80;20989;-48
2021/12/30 10:56:44;;;;;;;25.97;16.82;;;;;;;-0.54;65.99;100477.72;1733933;82;21021;-49
2021/12/30 10:59:18;;;;;;;30.70;16.37;;;;;;;-0.48;65.94;100487.00;1732765;82;21017;-48
2021/12/30 11:01:52;;;;;;;28.67;17.30;;;;;;;-0.45;65.86;100488.86;1738274;81;21471;-48
2021/12/30 11:04:20;;;;;;;26.30;14.93;;;;;;;-0.47;65.59;100486.19;1731138;82;21042;-39
2021/12/30 11:06:46;;;;;;;25.85;15.18;;;;;;;-0.48;65.48;100485.72;1731697;81;21521;-40
2021/12/30 11:09:17;;;;;;;28.90;15.80;;;;;;;-0.48;65.67;100487.00;1682875;84;20985;-40
2021/12/30 11:11:53;;;;;;;30.05;16.20;;;;;;;-0.49;65.92;100488.23;1705520;82;21100;-48
2021/12/30 11:14:23;;;;;;;27.42;15.83;;;;;;;-0.52;65.97;100479.07;1694324;84;21088;-39
2021/12/30 11:17:12;;;;;;;28.85;15.78;;;;;;;-0.55;65.67;100481.11;1695019;84;21137;-49
2021/12/30 11:19:53;;;;;;;26.68;15.80;;;;;;;-0.59;66.00;100486.49;1694629;84;21004;-38
2021/12/30 11:22:28;;;;;;;32.00;18.50;;;;;;;-0.60;66.24;100483.45;1696097;82;21052;-47
2021/12/30 11:24:58;;;;;;;32.50;18.67;;;;;;;-0.52;66.29;100486.78;1706051;83;21016;-46
2021/12/30 11:27:26;;;;;;;28.47;15.80;;;;;;;-0.59;66.28;100492.05;1695932;83;21067;-46
2021/12/30 11:30:01;;;;;;;22.40;14.07;;;;;;;-0.69;66.42;100503.59;1733439;82;21046;-47
2021/12/30 11:32:30;;;;;;;22.93;14.23;;;;;;;-0.78;66.42;100506.11;1726392;82;21027;-46
2021/12/30 11:34:58;;;;;;;20.80;12.73;;;;;;;-0.84;66.86;100507.98;1731422;82;21389;-44
2021/12/30 11:37:25;;;;;;;18.45;11.68;;;;;;;-0.92;67.20;100502.48;1721785;82;21073;-47
2021/12/30 11:39:55;;;;;;;21.15;12.70;;;;;;;-1.02;67.60;100510.93;1726684;81;21020;-47
2021/12/30 11:42:26;;;;;;;20.45;13.15;;;;;;;-1.12;67.92;100514.72;1721036;82;22076;-38
2021/12/30 11:44:55;;;;;;;21.45;13.08;;;;;;;-1.20;68.04;100515.63;1707014;81;21448;-47
2021/12/30 11:47:37;;;;;;;19.27;12.60;;;;;;;-1.25;68.44;100511.94;1683862;84;21564;-47
2021/12/30 11:50:30;;;;;;;25.57;14.55;;;;;;;-1.25;68.72;100508.49;1680403;84;21452;-47
2021/12/30 11:53:11;;;;;;;25.02;13.93;;;;;;;-1.21;69.00;100504.88;1720365;82;21589;-47
2021/12/30 11:55:58;;;;;;;33.02;16.17;;;;;;;-1.11;69.36;100506.20;1679952;83;21946;-39
2021/12/30 11:58:42;;;;;;;17.12;9.45;;;;;;;-1.12;69.29;100497.62;1684937;83;21014;-40
2021/12/30 12:01:21;;;;;;;43.33;22.07;;;;;;;-1.21;68.77;100502.72;1686648;84;21902;-39
2021/12/30 12:03:56;;;;;;;35.73;17.32;;;;;;;-1.25;69.30;100506.80;1723035;82;21017;-48
2021/12/30 12:06:34;;;;;;;20.48;11.90;;;;;;;-1.21;69.53;100509.14;1719511;82;21009;-47
2021/12/30 12:09:22;;;;;;;16.95;10.10;;;;;;;-1.23;69.64;100502.62;1717969;82;21092;-40
2021/12/30 12:11:54;;;;;;;14.73;9.00;;;;;;;-1.26;69.87;100508.91;1721691;82;21022;-39
2021/12/30 12:14:28;;;;;;;14.43;9.43;;;;;;;-1.37;69.86;100508.35;1725528;82;21104;-47
2021/12/30 12:17:05;;;;;;;13.55;8.65;;;;;;;-1.44;70.29;100509.25;1647498;86;21115;-45
2021/12/30 12:19:42;;;;;;;13.13;8.93;;;;;;;-1.47;70.40;100518.06;1668470;84;21572;-47
2021/12/30 12:22:28;;;;;;;11.30;6.92;;;;;;;-1.51;70.38;100514.45;1689327;83;21097;-40
2021/12/30 12:25:22;;;;;;;17.92;9.50;;;;;;;-1.45;70.78;100521.21;1687695;84;20996;-47
2021/12/30 12:27:52;;;;;;;12.98;8.38;;;;;;;-1.42;70.67;100517.91;1716425;82;21084;-47
2021/12/30 12:30:34;;;;;;;17.02;11.95;;;;;;;-1.40;70.26;100504.33;1724798;82;21442;-47
2021/12/30 12:33:27;;;;;;;17.45;10.78;;;;;;;-1.38;70.08;100500.17;1720742;82;21529;-39
2021/12/30 12:35:54;;;;;;;13.28;8.13;;;;;;;-1.42;70.05;100499.53;1720932;82;21483;-39
2021/12/30 12:38:41;;;;;;;14.58;7.97;;;;;;;-1.42;70.04;100491.83;1720601;82;21024;-39
2021/12/30 12:41:31;;;;;;;10.82;8.03;;;;;;;-1.45;70.56;100486.56;1719169;81;21054;-39
2021/12/30 12:44:05;;;;;;;14.18;8.00;;;;;;;-1.41;70.68;100499.13;1737306;80;21050;-40
2021/12/30 12:46:46;;;;;;;12.15;8.35;;;;;;;-1.40;70.73;100501.77;1748992;80;21086;-47
2021/12/30 12:49:14;;;;;;;11.18;7.65;;;;;;;-1.36;71.01;100500.25;1694128;83;21615;-48
2021/12/30 12:51:54;;;;;;;13.32;8.30;;;;;;;-1.32;70.70;100505.15;1717227;82;21049;-39
2021/12/30 12:54:38;;;;;;;13.72;8.38;;;;;;;-1.30;70.69;100503.12;1714475;82;21039;-39
2021/12/30 12:57:13;;;;;;;15.03;8.43;;;;;;;-1.32;70.35;100507.31;1737466;81;21076;-47
2021/12/30 12:59:40;;;;;;;14.25;8.48;;;;;;;-1.35;70.16;100503.28;1719512;82;21069;-39
2021/12/30 13:02:10;;;;;;;14.30;8.68;;;;;;;-1.35;70.98;100500.72;1729335;82;21076;-38
2021/12/30 13:04:36;;;;;;;15.55;8.18;;;;;;;-1.28;71.24;100502.78;1714237;83;21507;-38
2021/12/30 13:07:12;;;;;;;11.10;7.55;;;;;;;-1.22;70.76;100504.78;1714186;84;21420;-46
2021/12/30 13:09:41;;;;;;;13.08;7.97;;;;;;;-1.23;70.28;100510.32;1713719;82;21445;-46
2021/12/30 13:12:09;;;;;;;13.25;8.48;;;;;;;-1.29;70.15;100506.16;1700203;82;21081;-37
2021/12/30 13:14:38;;;;;;;13.83;7.83;;;;;;;-1.34;70.27;100511.46;1731847;82;21049;-37
2021/12/30 13:17:09;;;;;;;15.88;8.03;;;;;;;-1.41;70.44;100508.98;1733188;82;21052;-38
2021/12/30 13:19:39;;;;;;;15.00;7.95;;;;;;;-1.46;70.57;100509.55;1723903;83;21037;-38
2021/12/30 13:22:15;;;;;;;17.52;8.78;;;;;;;-1.43;71.00;100508.45;1723260;82;21513;-38
2021/12/30 13:24:56;;;;;;;10.30;6.72;;;;;;;-1.40;70.67;100506.90;1723398;83;21106;-46
